createdAt,value
2023-03-12T00:00:15.892Z,34.98
2023-03-12T00:01:15.951Z,34.96
2023-03-12T00:02:16.228Z,35.00
2023-03-12T00:03:15.752Z,35.10
2023-03-12T00:04:15.799Z,35.15
2023-03-12T00:05:15.749Z,35.16
2023-03-12T00:06:15.781Z,35.16
2023-03-12T00:07:15.747Z,35.05
2023-03-12T00:08:15.773Z,35.06
2023-03-12T00:09:14.775Z,34.92
2023-03-12T00:10:16.334Z,35.03
2023-03-12T00:11:16.712Z,35.01
2023-03-12T00:12:16.002Z,35.08
2023-03-12T00:13:15.782Z,35.08
2023-03-12T00:14:16.210Z,34.96
2023-03-12T00:15:17.469Z,35.05
2023-03-12T00:16:16.118Z,35.11
2023-03-12T00:17:17.877Z,35.02
2023-03-12T00:18:16.348Z,35.06
2023-03-12T00:19:16.183Z,35.07
2023-03-12T00:20:17.768Z,34.81
2023-03-12T00:21:18.815Z,35.05
2023-03-12T00:22:16.529Z,35.22
2023-03-12T00:23:15.886Z,34.94
2023-03-12T00:24:15.767Z,34.85
2023-03-12T00:25:15.676Z,34.77
2023-03-12T00:26:15.677Z,34.69
2023-03-12T00:27:15.703Z,34.78
2023-03-12T00:28:15.681Z,34.64
2023-03-12T00:29:15.691Z,34.69
2023-03-12T00:30:15.632Z,34.63
2023-03-12T00:31:14.684Z,34.59
2023-03-12T00:32:15.711Z,34.58
2023-03-12T00:33:15.649Z,34.53
2023-03-12T00:34:15.622Z,34.52
2023-03-12T00:35:14.729Z,34.41
2023-03-12T00:36:15.825Z,34.41
2023-03-12T00:37:15.697Z,34.32
2023-03-12T00:38:15.724Z,34.27
2023-03-12T00:39:14.797Z,34.25
2023-03-12T00:40:15.805Z,34.24
2023-03-12T00:41:15.925Z,34.17
2023-03-12T00:42:15.119Z,34.03
2023-03-12T00:43:16.099Z,34.03
2023-03-12T00:44:15.117Z,34.01
2023-03-12T00:45:16.075Z,33.92
2023-03-12T00:46:16.157Z,33.95
2023-03-12T00:47:16.341Z,33.87
2023-03-12T00:48:16.112Z,33.87
2023-03-12T00:49:16.252Z,33.86
2023-03-12T00:50:16.284Z,33.78
2023-03-12T00:51:16.247Z,33.70
2023-03-12T00:52:16.260Z,33.81
2023-03-12T00:53:16.355Z,33.73
2023-03-12T00:54:16.320Z,33.68
2023-03-12T00:55:15.316Z,33.75
2023-03-12T00:56:16.280Z,33.58
2023-03-12T00:57:16.751Z,33.64
2023-03-12T00:58:16.544Z,33.60
2023-03-12T00:59:16.397Z,33.62
2023-03-12T01:00:16.607Z,33.59
2023-03-12T01:01:16.529Z,33.59
2023-03-12T01:02:16.493Z,33.50
2023-03-12T01:03:15.464Z,33.46
2023-03-12T01:04:16.523Z,33.50
2023-03-12T01:05:16.632Z,33.50
2023-03-12T01:06:16.506Z,33.48
2023-03-12T01:07:15.487Z,33.45
2023-03-12T01:08:16.696Z,33.45
2023-03-12T01:09:16.507Z,33.44
2023-03-12T01:10:16.552Z,33.45
2023-03-12T01:11:16.528Z,33.42
2023-03-12T01:12:16.716Z,33.40
2023-03-12T01:13:15.750Z,33.45
2023-03-12T01:14:16.554Z,33.40
2023-03-12T01:15:16.541Z,33.35
2023-03-12T01:16:16.598Z,33.42
2023-03-12T01:17:15.647Z,33.40
2023-03-12T01:18:15.671Z,33.31
2023-03-12T01:19:16.569Z,33.28
2023-03-12T01:20:16.570Z,33.35
2023-03-12T01:21:16.626Z,33.34
2023-03-12T01:22:16.719Z,33.31
2023-03-12T01:23:16.629Z,33.35
2023-03-12T01:24:15.645Z,33.33
2023-03-12T01:25:16.746Z,33.24
2023-03-12T01:26:15.714Z,33.24
2023-03-12T01:27:16.629Z,33.21
2023-03-12T01:28:16.733Z,33.23
2023-03-12T01:29:16.742Z,33.17
2023-03-12T01:30:16.641Z,33.25
2023-03-12T01:31:16.950Z,33.24
2023-03-12T01:32:15.695Z,33.25
2023-03-12T01:33:16.762Z,33.20
2023-03-12T01:34:16.765Z,33.20
2023-03-12T01:35:16.730Z,33.23
2023-03-12T01:36:16.719Z,33.16
2023-03-12T01:37:16.707Z,33.19
2023-03-12T01:38:16.815Z,33.11
2023-03-12T01:39:16.631Z,33.23
2023-03-12T01:40:16.742Z,33.15
2023-03-12T01:41:16.654Z,33.14
2023-03-12T01:42:16.639Z,33.12
2023-03-12T01:43:15.671Z,33.04
2023-03-12T01:44:16.703Z,33.16
2023-03-12T01:45:16.654Z,33.14
2023-03-12T01:46:17.067Z,33.06
2023-03-12T01:47:16.700Z,33.04
2023-03-12T01:48:16.719Z,33.07
2023-03-12T01:49:16.723Z,33.09
2023-03-12T01:50:16.665Z,33.07
2023-03-12T01:51:16.626Z,33.07
2023-03-12T01:52:15.646Z,33.12
2023-03-12T01:53:16.641Z,33.02
2023-03-12T01:54:16.697Z,33.02
2023-03-12T01:55:16.714Z,33.05
2023-03-12T01:56:16.620Z,33.03
2023-03-12T01:57:15.613Z,33.00
2023-03-12T01:58:15.645Z,32.99
2023-03-12T01:59:16.685Z,32.97
2023-03-12T02:00:16.648Z,32.97
2023-03-12T02:01:16.689Z,32.97
2023-03-12T02:02:16.560Z,33.00
2023-03-12T02:03:16.574Z,33.01
2023-03-12T02:04:16.699Z,32.95
2023-03-12T02:05:16.558Z,33.03
2023-03-12T02:06:16.573Z,32.98
2023-03-12T02:07:16.675Z,33.00
2023-03-12T02:08:16.626Z,32.97
2023-03-12T02:09:15.583Z,33.01
2023-03-12T02:10:16.566Z,32.92
2023-03-12T02:11:16.577Z,32.91
2023-03-12T02:12:16.624Z,32.97
2023-03-12T02:13:15.628Z,32.84
2023-03-12T02:14:16.597Z,32.94
2023-03-12T02:15:16.624Z,32.85
2023-03-12T02:16:16.607Z,32.86
2023-03-12T02:17:16.678Z,32.87
2023-03-12T02:18:16.609Z,32.87
2023-03-12T02:19:16.598Z,32.89
2023-03-12T02:20:16.566Z,32.89
2023-03-12T02:21:16.623Z,32.87
2023-03-12T02:22:16.684Z,32.88
2023-03-12T02:23:16.581Z,32.84
2023-03-12T02:24:15.620Z,32.89
2023-03-12T02:25:15.665Z,32.86
2023-03-12T02:26:16.614Z,32.88
2023-03-12T02:27:15.579Z,32.90
2023-03-12T02:28:16.739Z,32.92
2023-03-12T02:29:16.645Z,32.91
2023-03-12T02:30:16.618Z,32.90
2023-03-12T02:31:15.766Z,32.86
2023-03-12T02:32:16.764Z,32.82
2023-03-12T02:33:16.658Z,32.83
2023-03-12T02:34:16.679Z,32.86
2023-03-12T02:35:16.629Z,32.90
2023-03-12T02:36:15.730Z,32.85
2023-03-12T02:37:16.701Z,32.88
2023-03-12T02:38:16.627Z,32.84
2023-03-12T02:39:16.759Z,32.80
2023-03-12T02:40:16.674Z,32.80
2023-03-12T02:41:16.812Z,32.88
2023-03-12T02:42:15.626Z,32.86
2023-03-12T02:43:15.655Z,32.81
2023-03-12T02:44:16.696Z,32.81
2023-03-12T02:45:16.798Z,32.77
2023-03-12T02:46:16.715Z,32.83
2023-03-12T02:47:16.874Z,32.84
2023-03-12T02:48:15.714Z,32.82
2023-03-12T02:49:16.782Z,32.82
2023-03-12T02:50:15.778Z,32.77
2023-03-12T02:51:16.703Z,32.81
2023-03-12T02:52:16.831Z,32.76
2023-03-12T02:53:16.784Z,32.80
2023-03-12T02:54:16.810Z,32.81
2023-03-12T02:55:16.771Z,32.75
2023-03-12T02:56:16.742Z,32.79
2023-03-12T02:57:16.906Z,32.81
2023-03-12T02:58:16.849Z,32.81
2023-03-12T02:59:16.802Z,32.83
2023-03-12T03:00:17.311Z,32.81
2023-03-12T03:01:16.800Z,32.76
2023-03-12T03:02:15.754Z,32.79
2023-03-12T03:03:16.802Z,32.77
2023-03-12T03:04:16.842Z,32.77
2023-03-12T03:05:16.963Z,32.82
2023-03-12T03:06:16.804Z,32.80
2023-03-12T03:07:16.738Z,32.73
2023-03-12T03:08:15.728Z,32.70
2023-03-12T03:09:15.875Z,32.80
2023-03-12T03:10:15.823Z,32.79
2023-03-12T03:11:16.795Z,32.79
2023-03-12T03:12:15.847Z,32.76
2023-03-12T03:13:16.837Z,32.77
2023-03-12T03:14:16.787Z,32.78
2023-03-12T03:15:16.854Z,32.76
2023-03-12T03:16:16.863Z,32.76
2023-03-12T03:17:15.807Z,32.75
2023-03-12T03:18:15.976Z,32.77
2023-03-12T03:19:15.793Z,32.72
2023-03-12T03:20:16.849Z,32.73
2023-03-12T03:21:16.919Z,32.76
2023-03-12T03:22:16.859Z,32.75
2023-03-12T03:23:16.828Z,32.71
2023-03-12T03:24:16.808Z,32.71
2023-03-12T03:25:16.786Z,32.73
2023-03-12T03:26:16.799Z,32.68
2023-03-12T03:27:16.836Z,32.73
2023-03-12T03:28:16.823Z,32.73
2023-03-12T03:29:16.838Z,32.67
2023-03-12T03:30:16.840Z,32.63
2023-03-12T03:31:16.942Z,32.68
2023-03-12T03:32:15.893Z,32.63
2023-03-12T03:33:16.773Z,32.59
2023-03-12T03:34:16.810Z,32.53
2023-03-12T03:35:16.815Z,32.57
2023-03-12T03:36:16.866Z,32.57
2023-03-12T03:37:16.791Z,32.52
2023-03-12T03:38:16.878Z,32.59
2023-03-12T03:39:15.825Z,32.50
2023-03-12T03:40:16.909Z,32.63
2023-03-12T03:41:16.912Z,32.55
2023-03-12T03:42:16.871Z,32.54
2023-03-12T03:43:15.920Z,32.55
2023-03-12T03:44:17.018Z,32.49
2023-03-12T03:45:16.950Z,32.53
2023-03-12T03:46:17.091Z,32.49
2023-03-12T03:47:16.984Z,32.57
2023-03-12T03:48:16.988Z,32.54
2023-03-12T03:49:16.989Z,32.46
2023-03-12T03:50:17.054Z,32.46
2023-03-12T03:51:17.026Z,32.49
2023-03-12T03:52:17.166Z,32.46
2023-03-12T03:53:17.106Z,32.48
2023-03-12T03:54:16.074Z,32.54
2023-03-12T03:56:35.246Z,32.59
2023-03-12T03:57:36.299Z,32.59
2023-03-12T03:58:35.372Z,32.58
2023-03-12T03:59:36.356Z,32.57
2023-03-12T04:00:36.284Z,32.51
2023-03-12T04:01:36.278Z,32.48
2023-03-12T04:02:35.285Z,32.51
2023-03-12T04:03:36.387Z,32.52
2023-03-12T04:04:36.159Z,32.43
2023-03-12T04:05:35.324Z,32.52
2023-03-12T04:06:36.111Z,32.40
2023-03-12T04:07:35.209Z,32.48
2023-03-12T04:08:36.239Z,32.50
2023-03-12T04:09:36.182Z,32.46
2023-03-12T04:10:36.242Z,32.49
2023-03-12T04:11:35.111Z,32.51
2023-03-12T04:12:35.216Z,32.49
2023-03-12T04:13:36.090Z,32.51
2023-03-12T04:14:36.062Z,32.46
2023-03-12T04:15:36.136Z,32.46
2023-03-12T04:16:35.194Z,32.52
2023-03-12T04:17:36.089Z,32.50
2023-03-12T04:18:35.007Z,32.51
2023-03-12T04:19:36.267Z,32.45
2023-03-12T04:20:36.032Z,32.48
2023-03-12T04:21:36.034Z,32.43
2023-03-12T04:22:36.182Z,32.45
2023-03-12T04:23:36.131Z,32.46
2023-03-12T04:24:35.105Z,32.53
2023-03-12T04:25:36.136Z,32.49
2023-03-12T04:26:35.062Z,32.53
2023-03-12T04:27:36.111Z,32.49
2023-03-12T04:28:35.023Z,32.46
2023-03-12T04:29:36.049Z,32.48
2023-03-12T04:30:35.988Z,32.53
2023-03-12T04:31:36.094Z,32.49
2023-03-12T04:32:36.089Z,32.45
2023-03-12T04:33:35.036Z,32.45
2023-03-12T04:34:35.999Z,32.48
2023-03-12T04:35:36.064Z,32.51
2023-03-12T04:36:35.898Z,32.59
2023-03-12T04:37:36.105Z,32.48
2023-03-12T04:38:35.921Z,32.47
2023-03-12T04:39:34.904Z,32.43
2023-03-12T04:40:34.873Z,32.48
2023-03-12T04:41:35.886Z,32.48
2023-03-12T04:42:36.029Z,32.42
2023-03-12T04:43:36.043Z,32.52
2023-03-12T04:44:35.991Z,32.41
2023-03-12T04:45:35.987Z,32.42
2023-03-12T04:46:35.943Z,32.43
2023-03-12T04:47:35.821Z,32.42
2023-03-12T04:48:35.864Z,32.44
2023-03-12T04:49:35.926Z,32.41
2023-03-12T04:50:36.029Z,32.40
2023-03-12T04:51:36.180Z,32.40
2023-03-12T04:52:36.045Z,32.40
2023-03-12T04:53:35.224Z,32.37
2023-03-12T04:54:35.153Z,32.44
2023-03-12T04:55:36.230Z,32.46
2023-03-12T04:56:35.214Z,32.47
2023-03-12T04:57:36.366Z,32.46
2023-03-12T04:58:36.337Z,32.47
2023-03-12T04:59:36.402Z,32.46
2023-03-12T05:00:36.391Z,32.40
2023-03-12T05:01:36.451Z,32.34
2023-03-12T05:02:36.493Z,32.41
2023-03-12T05:03:36.615Z,32.45
2023-03-12T05:04:36.507Z,32.46
2023-03-12T05:05:36.615Z,32.44
2023-03-12T05:06:35.566Z,32.44
2023-03-12T05:07:35.727Z,32.41
2023-03-12T05:08:36.868Z,32.43
2023-03-12T05:09:36.685Z,32.41
2023-03-12T05:10:35.792Z,32.47
2023-03-12T05:11:39.213Z,32.44
2023-03-12T05:12:35.861Z,32.44
2023-03-12T05:13:36.859Z,32.48
2023-03-12T05:14:36.814Z,32.46
2023-03-12T05:15:35.855Z,32.44
2023-03-12T05:16:36.792Z,32.41
2023-03-12T05:17:36.755Z,32.44
2023-03-12T05:18:36.853Z,32.47
2023-03-12T05:19:36.896Z,32.46
2023-03-12T05:20:36.748Z,32.47
2023-03-12T05:21:36.824Z,32.51
2023-03-12T05:22:36.778Z,32.49
2023-03-12T05:23:36.795Z,32.54
2023-03-12T05:24:36.766Z,32.48
2023-03-12T05:25:36.830Z,32.52
2023-03-12T05:26:36.676Z,32.55
2023-03-12T05:27:36.908Z,32.51
2023-03-12T05:28:36.717Z,32.46
2023-03-12T05:29:36.695Z,32.51
2023-03-12T05:30:35.685Z,32.51
2023-03-12T05:31:36.754Z,32.47
2023-03-12T05:32:36.672Z,32.47
2023-03-12T05:33:36.706Z,32.48
2023-03-12T05:34:36.730Z,32.47
2023-03-12T05:35:36.842Z,32.46
2023-03-12T05:36:36.630Z,32.41
2023-03-12T05:37:35.649Z,32.48
2023-03-12T05:38:35.631Z,32.55
2023-03-12T05:39:36.679Z,32.47
2023-03-12T05:40:36.789Z,32.57
2023-03-12T05:41:36.907Z,32.48
2023-03-12T05:42:37.018Z,32.52
2023-03-12T05:43:36.923Z,32.43
2023-03-12T05:44:37.090Z,32.46
2023-03-12T05:45:37.121Z,32.48
2023-03-12T05:46:37.089Z,32.46
2023-03-12T05:47:37.344Z,32.48
2023-03-12T05:48:36.278Z,32.47
2023-03-12T05:49:37.369Z,32.47
2023-03-12T05:50:37.434Z,32.42
2023-03-12T05:51:37.432Z,32.51
2023-03-12T05:52:36.623Z,32.47
2023-03-12T05:53:36.607Z,32.47
2023-03-12T05:54:37.639Z,32.55
2023-03-12T05:55:37.756Z,32.48
2023-03-12T05:56:37.723Z,32.47
2023-03-12T05:57:37.829Z,32.50
2023-03-12T05:58:37.936Z,32.51
2023-03-12T05:59:37.986Z,32.48
2023-03-12T06:00:38.130Z,32.43
2023-03-12T06:01:38.173Z,32.45
2023-03-12T06:02:38.178Z,32.46
2023-03-12T06:03:38.280Z,32.39
2023-03-12T06:04:38.376Z,32.42
2023-03-12T06:05:38.403Z,32.45
2023-03-12T06:06:38.470Z,32.43
2023-03-12T06:07:37.686Z,32.43
2023-03-12T06:08:38.552Z,32.46
2023-03-12T06:09:38.622Z,32.43
2023-03-12T06:10:37.718Z,32.42
2023-03-12T06:11:38.667Z,32.41
2023-03-12T06:12:38.782Z,32.41
2023-03-12T06:13:38.862Z,32.42
2023-03-12T06:14:38.930Z,32.38
2023-03-12T06:15:38.973Z,32.38
2023-03-12T06:16:38.058Z,32.34
2023-03-12T06:17:38.139Z,32.37
2023-03-12T06:18:38.124Z,32.34
2023-03-12T06:19:38.329Z,32.41
2023-03-12T06:20:38.247Z,32.40
2023-03-12T06:21:39.298Z,32.38
2023-03-12T06:22:38.364Z,32.34
2023-03-12T06:23:39.581Z,32.37
2023-03-12T06:24:39.475Z,32.38
2023-03-12T06:25:39.583Z,32.33
2023-03-12T06:26:39.537Z,32.32
2023-03-12T06:27:39.621Z,32.37
2023-03-12T06:28:39.661Z,32.37
2023-03-12T06:29:38.729Z,32.41
2023-03-12T06:30:39.789Z,32.39
2023-03-12T06:31:40.028Z,32.35
2023-03-12T06:32:40.081Z,32.34
2023-03-12T06:33:38.978Z,32.42
2023-03-12T06:34:40.045Z,32.30
2023-03-12T06:35:40.228Z,32.36
2023-03-12T06:36:40.279Z,32.36
2023-03-12T06:37:40.319Z,32.33
2023-03-12T06:38:40.403Z,32.39
2023-03-12T06:39:40.427Z,32.33
2023-03-12T06:40:40.423Z,32.39
2023-03-12T06:41:40.524Z,32.33
2023-03-12T06:42:40.580Z,32.35
2023-03-12T06:43:40.639Z,32.29
2023-03-12T06:44:40.787Z,32.29
2023-03-12T06:45:40.765Z,32.35
2023-03-12T06:46:42.695Z,32.31
2023-03-12T06:47:40.869Z,32.36
2023-03-12T06:48:40.735Z,32.30
2023-03-12T06:49:39.808Z,32.36
2023-03-12T06:50:40.745Z,32.36
2023-03-12T06:51:40.791Z,32.33
2023-03-12T06:52:39.904Z,32.35
2023-03-12T06:53:42.501Z,32.36
2023-03-12T06:54:40.791Z,32.35
2023-03-12T06:55:40.697Z,32.35
2023-03-12T06:56:40.891Z,32.31
2023-03-12T06:57:40.808Z,32.36
2023-03-12T06:58:40.811Z,32.35
2023-03-12T06:59:40.757Z,32.35
2023-03-12T07:00:40.711Z,32.39
2023-03-12T07:01:40.740Z,32.36
2023-03-12T07:02:40.788Z,32.34
2023-03-12T07:03:40.862Z,32.36
2023-03-12T07:04:40.711Z,32.32
2023-03-12T07:05:40.722Z,32.32
2023-03-12T07:06:40.652Z,32.31
2023-03-12T07:07:40.802Z,32.31
2023-03-12T07:08:40.692Z,32.28
2023-03-12T07:09:40.659Z,32.31
2023-03-12T07:10:40.680Z,32.31
2023-03-12T07:11:39.647Z,32.34
2023-03-12T07:12:39.650Z,32.32
2023-03-12T07:13:39.632Z,32.34
2023-03-12T07:14:40.645Z,32.30
2023-03-12T07:15:40.745Z,32.26
2023-03-12T07:16:40.750Z,32.32
2023-03-12T07:17:40.809Z,32.28
2023-03-12T07:18:41.014Z,32.28
2023-03-12T07:19:40.927Z,32.27
2023-03-12T07:20:41.081Z,32.31
2023-03-12T07:21:41.036Z,32.31
2023-03-12T07:22:41.143Z,32.35
2023-03-12T07:23:41.140Z,32.28
2023-03-12T07:24:41.292Z,32.26
2023-03-12T07:25:41.275Z,32.32
2023-03-12T07:26:41.424Z,32.29
2023-03-12T07:27:41.451Z,32.30
2023-03-12T07:28:41.515Z,32.37
2023-03-12T07:29:40.464Z,32.34
2023-03-12T07:30:41.538Z,32.31
2023-03-12T07:31:41.608Z,32.32
2023-03-12T07:32:40.853Z,32.31
2023-03-12T07:33:41.823Z,32.34
2023-03-12T07:34:41.787Z,32.31
2023-03-12T07:35:41.934Z,32.29
2023-03-12T07:36:42.156Z,32.33
2023-03-12T07:37:41.894Z,32.25
2023-03-12T07:38:42.076Z,32.27
2023-03-12T07:39:42.181Z,32.26
2023-03-12T07:40:42.324Z,32.26
2023-03-12T07:41:42.241Z,32.28
2023-03-12T07:42:42.289Z,32.25
2023-03-12T07:43:42.471Z,32.31
2023-03-12T07:44:41.506Z,32.28
2023-03-12T07:45:42.466Z,32.26
2023-03-12T07:46:42.552Z,32.26
2023-03-12T07:47:42.689Z,32.28
2023-03-12T07:48:44.334Z,32.25
2023-03-12T07:49:42.568Z,32.28
2023-03-12T07:50:42.514Z,32.26
2023-03-12T07:51:42.592Z,32.22
2023-03-12T07:52:41.578Z,32.25
2023-03-12T07:53:42.606Z,32.22
2023-03-12T07:54:41.621Z,32.20
2023-03-12T07:55:42.658Z,32.18
2023-03-12T07:58:00.758Z,32.33
2023-03-12T07:59:01.731Z,32.25
2023-03-12T08:00:01.696Z,32.32
2023-03-12T08:01:01.606Z,32.26
2023-03-12T08:02:00.799Z,32.32
2023-03-12T08:03:13.388Z,32.26
2023-03-12T08:04:01.905Z,32.29
2023-03-12T08:05:01.619Z,32.29
2023-03-12T08:06:01.640Z,32.24
2023-03-12T08:07:01.815Z,32.27
2023-03-12T08:08:01.614Z,32.32
2023-03-12T08:09:00.579Z,32.36
2023-03-12T08:10:01.566Z,32.28
2023-03-12T08:11:01.591Z,32.29
2023-03-12T08:12:00.738Z,32.26
2023-03-12T08:13:00.610Z,32.24
2023-03-12T08:15:19.673Z,32.29
2023-03-12T08:16:20.695Z,32.28
2023-03-12T08:17:20.731Z,32.28
2023-03-12T08:18:19.671Z,32.26
2023-03-12T08:19:19.759Z,32.27
2023-03-12T08:20:20.828Z,32.28
2023-03-12T08:21:20.958Z,32.28
2023-03-12T08:22:20.878Z,32.23
2023-03-12T08:23:20.970Z,32.27
2023-03-12T08:24:21.133Z,32.30
2023-03-12T08:25:20.206Z,32.24
2023-03-12T08:26:21.390Z,32.27
2023-03-12T08:27:21.314Z,32.28
2023-03-12T08:28:20.300Z,32.22
2023-03-12T08:29:21.271Z,32.23
2023-03-12T08:30:20.391Z,32.19
2023-03-12T08:31:21.453Z,32.19
2023-03-12T08:32:21.480Z,32.19
2023-03-12T08:33:21.391Z,32.20
2023-03-12T08:34:21.542Z,32.23
2023-03-12T08:35:20.612Z,32.20
2023-03-12T08:36:22.564Z,32.23
2023-03-12T08:37:21.568Z,32.24
2023-03-12T08:38:21.656Z,32.18
2023-03-12T08:39:21.740Z,32.20
2023-03-12T08:40:21.839Z,32.23
2023-03-12T08:41:21.804Z,32.20
2023-03-12T08:42:20.817Z,32.22
2023-03-12T08:43:20.888Z,32.16
2023-03-12T08:44:21.853Z,32.18
2023-03-12T08:45:21.925Z,32.19
2023-03-12T08:46:21.978Z,32.16
2023-03-12T08:47:21.921Z,32.18
2023-03-12T08:48:22.040Z,32.21
2023-03-12T08:49:22.202Z,32.16
2023-03-12T08:50:21.129Z,32.19
2023-03-12T08:51:21.097Z,32.16
2023-03-12T08:52:22.158Z,32.22
2023-03-12T08:53:22.271Z,32.21
2023-03-12T08:54:21.475Z,32.23
2023-03-12T08:55:22.311Z,32.22
2023-03-12T08:56:22.403Z,32.26
2023-03-12T08:57:22.382Z,32.26
2023-03-12T08:58:22.449Z,32.26
2023-03-12T08:59:22.383Z,32.23
2023-03-12T09:00:22.462Z,32.26
2023-03-12T09:01:22.646Z,32.21
2023-03-12T09:02:22.604Z,32.29
2023-03-12T09:03:21.779Z,32.32
2023-03-12T09:04:21.639Z,32.29
2023-03-12T09:05:22.594Z,32.23
2023-03-12T09:06:21.717Z,32.24
2023-03-12T09:07:22.686Z,32.26
2023-03-12T09:08:22.691Z,32.29
2023-03-12T09:09:22.693Z,32.28
2023-03-12T09:10:22.887Z,32.29
2023-03-12T09:11:22.836Z,32.18
2023-03-12T09:12:22.879Z,32.24
2023-03-12T09:13:22.914Z,32.19
2023-03-12T09:15:01.020Z,32.24
2023-03-12T09:15:22.974Z,32.19
2023-03-12T09:16:22.937Z,32.21
2023-03-12T09:17:22.837Z,32.21
2023-03-12T09:18:22.931Z,32.26
2023-03-12T09:19:22.874Z,32.25
2023-03-12T09:20:21.882Z,32.25
2023-03-12T09:21:22.868Z,32.21
2023-03-12T09:22:21.877Z,32.26
2023-03-12T09:23:22.927Z,32.19
2023-03-12T09:24:22.969Z,32.25
2023-03-12T09:25:22.969Z,32.26
2023-03-12T09:26:22.887Z,32.25
2023-03-12T09:27:23.000Z,32.22
2023-03-12T09:28:22.847Z,32.33
2023-03-12T09:29:22.866Z,32.26
2023-03-12T09:30:22.925Z,32.26
2023-03-12T09:31:21.812Z,32.29
2023-03-12T09:32:22.955Z,32.25
2023-03-12T09:33:22.787Z,32.25
2023-03-12T09:34:22.801Z,32.26
2023-03-12T09:35:22.822Z,32.18
2023-03-12T09:36:22.746Z,32.21
2023-03-12T09:37:24.307Z,32.25
2023-03-12T09:38:21.840Z,32.26
2023-03-12T09:39:22.713Z,32.28
2023-03-12T09:40:22.821Z,32.24
2023-03-12T09:41:22.830Z,32.28
2023-03-12T09:42:22.711Z,32.26
2023-03-12T09:43:22.808Z,32.22
2023-03-12T09:44:22.686Z,32.19
2023-03-12T09:45:22.734Z,32.17
2023-03-12T09:46:22.734Z,32.21
2023-03-12T09:47:22.723Z,32.20
2023-03-12T09:48:22.669Z,32.19
2023-03-12T09:49:22.833Z,32.25
2023-03-12T09:50:22.689Z,32.21
2023-03-12T09:51:22.689Z,32.24
2023-03-12T09:52:22.749Z,32.20
2023-03-12T09:53:22.716Z,32.19
2023-03-12T09:54:22.611Z,32.17
2023-03-12T09:55:22.679Z,32.16
2023-03-12T09:56:22.603Z,32.21
2023-03-12T09:57:22.695Z,32.16
2023-03-12T09:58:22.631Z,32.17
2023-03-12T09:59:22.592Z,32.15
2023-03-12T10:00:22.658Z,32.06
2023-03-12T10:01:22.614Z,32.08
2023-03-12T10:02:21.630Z,32.08
2023-03-12T10:03:22.694Z,32.10
2023-03-12T10:04:22.570Z,32.08
2023-03-12T10:05:21.622Z,32.09
2023-03-12T10:06:22.607Z,32.10
2023-03-12T10:07:21.531Z,32.04
2023-03-12T10:08:26.606Z,32.04
2023-03-12T10:09:22.619Z,32.04
2023-03-12T10:10:22.570Z,32.09
2023-03-12T10:11:22.680Z,32.06
2023-03-12T10:12:21.429Z,32.08
2023-03-12T10:13:22.556Z,32.11
2023-03-12T10:14:24.197Z,32.16
2023-03-12T10:15:22.605Z,32.08
2023-03-12T10:16:22.519Z,32.10
2023-03-12T10:17:22.430Z,32.07
2023-03-12T10:18:22.669Z,32.08
2023-03-12T10:19:22.651Z,32.07
2023-03-12T10:20:21.711Z,32.06
2023-03-12T10:21:22.685Z,32.11
2023-03-12T10:22:22.645Z,32.08
2023-03-12T10:23:21.501Z,32.04
2023-03-12T10:24:25.113Z,32.07
2023-03-12T10:25:22.452Z,32.16
2023-03-12T10:26:21.417Z,32.10
2023-03-12T10:27:21.458Z,32.11
2023-03-12T10:28:22.723Z,32.09
2023-03-12T10:29:22.498Z,32.09
2023-03-12T10:30:21.413Z,32.10
2023-03-12T10:31:22.399Z,32.05
2023-03-12T10:32:22.430Z,32.06
2023-03-12T10:33:22.396Z,32.02
2023-03-12T10:34:22.504Z,32.08
2023-03-12T10:35:22.078Z,32.04
2023-03-12T10:36:22.343Z,32.03
2023-03-12T10:37:22.671Z,32.04
2023-03-12T10:38:22.369Z,32.02
2023-03-12T10:39:22.625Z,32.12
2023-03-12T10:40:22.646Z,32.13
2023-03-12T10:41:22.568Z,32.11
2023-03-12T10:42:22.316Z,32.05
2023-03-12T10:43:22.282Z,32.06
2023-03-12T10:44:22.382Z,32.06
2023-03-12T10:45:22.314Z,32.09
2023-03-12T10:46:22.567Z,32.05
2023-03-12T10:47:22.239Z,32.08
2023-03-12T10:48:22.392Z,32.12
2023-03-12T10:49:22.300Z,32.06
2023-03-12T10:50:22.267Z,32.13
2023-03-12T10:51:22.400Z,32.14
2023-03-12T10:52:22.312Z,32.13
2023-03-12T10:53:22.292Z,32.15
2023-03-12T10:54:22.328Z,32.12
2023-03-12T10:55:22.423Z,32.08
2023-03-12T10:56:22.283Z,32.09
2023-03-12T10:57:22.244Z,32.13
2023-03-12T10:58:22.186Z,32.09
2023-03-12T10:59:22.221Z,32.03
2023-03-12T11:00:22.205Z,32.08
2023-03-12T11:01:22.309Z,32.09
2023-03-12T11:02:22.324Z,32.09
2023-03-12T11:03:21.205Z,32.13
2023-03-12T11:04:22.260Z,32.05
2023-03-12T11:05:22.528Z,32.05
2023-03-12T11:06:22.214Z,32.04
2023-03-12T11:07:22.276Z,32.05
2023-03-12T11:08:22.319Z,32.10
2023-03-12T11:09:22.398Z,32.07
2023-03-12T11:10:22.396Z,32.12
2023-03-12T11:11:22.354Z,32.15
2023-03-12T11:12:22.308Z,32.10
2023-03-12T11:13:22.550Z,32.06
2023-03-12T11:14:22.400Z,32.03
2023-03-12T11:15:21.521Z,32.09
2023-03-12T11:16:22.662Z,32.13
2023-03-12T11:17:22.399Z,31.99
2023-03-12T11:18:22.449Z,32.02
2023-03-12T11:19:22.462Z,32.04
2023-03-12T11:20:22.529Z,32.03
2023-03-12T11:21:22.741Z,32.02
2023-03-12T11:22:22.517Z,32.06
2023-03-12T11:23:22.503Z,32.05
2023-03-12T11:24:22.485Z,32.06
2023-03-12T11:25:22.587Z,32.07
2023-03-12T11:26:22.715Z,32.14
2023-03-12T11:27:22.472Z,32.10
2023-03-12T11:28:22.109Z,32.07
2023-03-12T11:29:21.620Z,32.17
2023-03-12T11:30:21.897Z,32.18
2023-03-12T11:31:22.816Z,32.15
2023-03-12T11:32:22.750Z,32.21
2023-03-12T11:33:21.621Z,32.14
2023-03-12T11:34:22.625Z,32.12
2023-03-12T11:35:21.788Z,32.19
2023-03-12T11:36:22.837Z,32.15
2023-03-12T11:37:22.640Z,32.18
2023-03-12T11:38:22.652Z,32.22
2023-03-12T11:39:22.663Z,32.17
2023-03-12T11:40:22.792Z,32.21
2023-03-12T11:41:22.743Z,32.18
2023-03-12T11:42:22.817Z,32.21
2023-03-12T11:43:40.013Z,32.22
2023-03-12T11:44:22.951Z,32.17
2023-03-12T11:45:22.668Z,32.15
2023-03-12T11:46:22.930Z,32.15
2023-03-12T11:47:21.730Z,32.22
2023-03-12T11:48:22.837Z,32.17
2023-03-12T11:49:22.688Z,32.21
2023-03-12T11:50:22.723Z,32.21
2023-03-12T11:51:21.669Z,32.26
2023-03-12T11:52:22.715Z,32.22
2023-03-12T11:53:22.726Z,32.21
2023-03-12T11:54:22.859Z,32.25
2023-03-12T11:55:22.765Z,32.25
2023-03-12T11:56:22.800Z,32.34
2023-03-12T11:57:22.695Z,32.24
2023-03-12T11:58:22.587Z,32.26
2023-03-12T11:59:21.624Z,32.27
2023-03-12T12:00:21.602Z,32.26
2023-03-12T12:01:21.632Z,32.33
2023-03-12T12:02:21.699Z,32.29
2023-03-12T12:03:22.653Z,32.32
2023-03-12T12:04:21.665Z,32.45
2023-03-12T12:05:21.600Z,32.38
2023-03-12T12:06:22.573Z,32.34
2023-03-12T12:07:22.577Z,32.35
2023-03-12T12:08:22.566Z,32.37
2023-03-12T12:09:22.707Z,32.35
2023-03-12T12:10:22.866Z,32.39
2023-03-12T12:11:22.590Z,32.37
2023-03-12T12:12:22.539Z,32.41
2023-03-12T12:13:22.601Z,32.35
2023-03-12T12:14:21.581Z,32.37
2023-03-12T12:15:21.472Z,32.40
2023-03-12T12:16:22.560Z,32.41
2023-03-12T12:17:22.677Z,32.41
2023-03-12T12:18:22.442Z,32.46
2023-03-12T12:19:22.444Z,32.44
2023-03-12T12:20:21.449Z,32.45
2023-03-12T12:21:22.628Z,32.45
2023-03-12T12:22:22.520Z,32.42
2023-03-12T12:23:22.434Z,32.41
2023-03-12T12:24:21.534Z,32.44
2023-03-12T12:25:22.520Z,32.42
2023-03-12T12:26:22.535Z,32.47
2023-03-12T12:27:22.635Z,32.48
2023-03-12T12:28:22.406Z,32.42
2023-03-12T12:29:22.689Z,32.44
2023-03-12T12:30:22.362Z,32.42
2023-03-12T12:31:22.686Z,32.45
2023-03-12T12:32:22.526Z,32.44
2023-03-12T12:33:21.464Z,32.42
2023-03-12T12:34:22.441Z,32.45
2023-03-12T12:35:22.345Z,32.44
2023-03-12T12:36:22.349Z,32.48
2023-03-12T12:37:22.519Z,32.49
2023-03-12T12:38:21.450Z,32.49
2023-03-12T12:39:21.603Z,32.52
2023-03-12T12:40:21.676Z,32.49
2023-03-12T12:41:22.473Z,32.47
2023-03-12T12:42:22.709Z,32.51
2023-03-12T12:43:21.480Z,32.55
2023-03-12T12:44:22.513Z,32.53
2023-03-12T12:45:22.503Z,32.53
2023-03-12T12:46:22.595Z,32.52
2023-03-12T12:47:22.504Z,32.53
2023-03-12T12:48:21.566Z,32.49
2023-03-12T12:49:21.586Z,32.58
2023-03-12T12:50:22.754Z,32.57
2023-03-12T12:51:22.645Z,32.58
2023-03-12T12:52:21.581Z,32.53
2023-03-12T12:53:21.584Z,32.60
2023-03-12T12:54:21.731Z,32.56
2023-03-12T12:55:22.674Z,32.56
2023-03-12T12:56:22.783Z,32.56